createdAt,value
2019-06-01T00:00:28.069Z,16.92
2019-06-01T00:01:28.059Z,16.91
2019-06-01T00:02:28.062Z,16.91
2019-06-01T00:03:28.046Z,16.89
2019-06-01T00:04:28.025Z,16.87
2019-06-01T00:05:28.015Z,16.86
2019-06-01T00:06:28.011Z,16.86
2019-06-01T00:07:27.995Z,16.86
2019-06-01T00:08:27.983Z,16.84
2019-06-01T00:09:27.982Z,16.84
2019-06-01T00:10:27.963Z,16.83
2019-06-01T00:11:27.951Z,16.81
2019-06-01T00:12:27.941Z,16.80
2019-06-01T00:13:27.929Z,16.77
2019-06-01T00:14:27.919Z,16.76
2019-06-01T00:15:27.922Z,16.75
2019-06-01T00:16:27.901Z,16.73
2019-06-01T00:17:27.888Z,16.71
2019-06-01T00:18:27.875Z,16.69
2019-06-01T00:19:27.866Z,16.67
2019-06-01T00:20:27.856Z,16.67
2019-06-01T00:21:27.859Z,16.64
2019-06-01T00:22:27.833Z,16.66
2019-06-01T00:23:27.833Z,16.63
2019-06-01T00:24:27.812Z,16.61
2019-06-01T00:25:27.804Z,16.63
2019-06-01T00:26:27.795Z,16.59
2019-06-01T00:27:27.791Z,16.58
2019-06-01T00:28:27.772Z,16.57
2019-06-01T00:29:27.759Z,16.57
2019-06-01T00:30:27.750Z,16.55
2019-06-01T00:31:27.738Z,16.55
2019-06-01T00:32:27.730Z,16.54
2019-06-01T00:33:27.741Z,16.52
2019-06-01T00:34:27.707Z,16.51
2019-06-01T00:35:27.700Z,16.50
2019-06-01T00:36:27.687Z,16.47
2019-06-01T00:37:27.673Z,16.45
2019-06-01T00:38:27.663Z,16.44
2019-06-01T00:39:27.664Z,16.42
2019-06-01T00:40:27.641Z,16.40
2019-06-01T00:41:27.630Z,16.39
2019-06-01T00:42:27.620Z,16.38
2019-06-01T00:43:27.610Z,16.37
2019-06-01T00:44:27.602Z,16.35
2019-06-01T00:45:27.608Z,16.33
2019-06-01T00:46:27.588Z,16.33
2019-06-01T00:47:27.567Z,16.31
2019-06-01T00:48:27.581Z,16.29
2019-06-01T00:49:27.566Z,16.29
2019-06-01T00:50:27.536Z,16.27
2019-06-01T00:51:27.534Z,16.26
2019-06-01T00:52:27.514Z,16.25
2019-06-01T00:53:27.505Z,16.24
2019-06-01T00:54:27.495Z,16.22
2019-06-01T00:55:27.481Z,16.20
2019-06-01T00:56:27.471Z,16.18
2019-06-01T00:57:27.480Z,16.16
2019-06-01T00:58:27.456Z,16.14
2019-06-01T00:59:27.440Z,16.12
2019-06-01T01:00:42.801Z,16.12
2019-06-01T01:01:28.416Z,16.11
2019-06-01T01:02:27.410Z,16.08
2019-06-01T01:03:27.405Z,16.08
2019-06-01T01:04:27.390Z,16.05
2019-06-01T01:05:27.380Z,16.02
2019-06-01T01:06:27.372Z,16.01
2019-06-01T01:07:27.349Z,15.99
2019-06-01T01:08:27.340Z,15.99
2019-06-01T01:09:27.341Z,15.97
2019-06-01T01:10:27.325Z,15.95
2019-06-01T01:11:27.306Z,15.93
2019-06-01T01:12:27.293Z,15.92
2019-06-01T01:13:27.288Z,15.91
2019-06-01T01:14:27.272Z,15.90
2019-06-01T01:15:27.273Z,15.88
2019-06-01T01:16:27.251Z,15.85
2019-06-01T01:17:27.247Z,15.84
2019-06-01T01:18:27.228Z,15.83
2019-06-01T01:19:27.216Z,15.83
2019-06-01T01:20:27.206Z,15.82
2019-06-01T01:21:27.205Z,15.79
2019-06-01T01:22:27.185Z,15.79
2019-06-01T01:23:27.189Z,15.77
2019-06-01T01:24:27.162Z,15.75
2019-06-01T01:25:27.181Z,15.74
2019-06-01T01:26:27.141Z,15.74
2019-06-01T01:27:27.144Z,15.72
2019-06-01T01:28:27.125Z,15.71
2019-06-01T01:29:27.106Z,15.71
2019-06-01T01:30:27.139Z,15.69
2019-06-01T01:31:27.087Z,15.68
2019-06-01T01:32:27.074Z,15.68
2019-06-01T01:33:27.072Z,15.67
2019-06-01T01:34:27.054Z,15.66
2019-06-01T01:35:27.042Z,15.66
2019-06-01T01:36:27.030Z,15.66
2019-06-01T01:37:27.018Z,15.64
2019-06-01T01:38:27.018Z,15.64
2019-06-01T01:39:27.006Z,15.64
2019-06-01T01:40:26.986Z,15.62
2019-06-01T01:41:26.973Z,15.62
2019-06-01T01:42:26.963Z,15.61
2019-06-01T01:43:26.951Z,15.63
2019-06-01T01:44:26.949Z,15.63
2019-06-01T01:45:26.940Z,15.61
2019-06-01T01:46:26.924Z,15.63
2019-06-01T01:47:26.908Z,15.64
2019-06-01T01:48:26.899Z,15.64
2019-06-01T01:49:26.887Z,15.64
2019-06-01T01:50:26.876Z,15.65
2019-06-01T01:51:26.883Z,15.65
2019-06-01T01:52:26.855Z,15.65
2019-06-01T01:53:26.847Z,15.64
2019-06-01T01:54:26.832Z,15.66
2019-06-01T01:55:26.820Z,15.65
2019-06-01T01:56:26.810Z,15.66
2019-06-01T01:57:26.817Z,15.65
2019-06-01T01:58:26.789Z,15.66
2019-06-01T01:59:26.784Z,15.65
2019-06-01T02:00:26.771Z,15.65
2019-06-01T02:01:26.757Z,15.65
2019-06-01T02:02:26.748Z,15.64
2019-06-01T02:03:26.746Z,15.63
2019-06-01T02:04:26.727Z,15.64
2019-06-01T02:05:26.715Z,15.62
2019-06-01T02:06:28.988Z,15.61
2019-06-01T02:07:26.692Z,15.62
2019-06-01T02:08:26.681Z,15.61
2019-06-01T02:09:26.698Z,15.60
2019-06-01T02:10:26.661Z,15.61
2019-06-01T02:11:26.650Z,15.59
2019-06-01T02:12:26.639Z,15.60
2019-06-01T02:13:26.637Z,15.59
2019-06-01T02:14:26.618Z,15.57
2019-06-01T02:15:26.618Z,15.58
2019-06-01T02:16:26.598Z,15.57
2019-06-01T02:17:26.608Z,15.55
2019-06-01T02:18:26.574Z,15.54
2019-06-01T02:19:26.565Z,15.54
2019-06-01T02:20:26.554Z,15.52
2019-06-01T02:21:26.562Z,15.52
2019-06-01T02:22:26.534Z,15.50
2019-06-01T02:23:26.521Z,15.49
2019-06-01T02:24:26.509Z,15.48
2019-06-01T02:25:26.497Z,15.48
2019-06-01T02:26:26.488Z,15.47
2019-06-01T02:27:26.491Z,15.46
2019-06-01T02:28:26.466Z,15.45
2019-06-01T02:29:26.455Z,15.45
2019-06-01T02:30:26.476Z,15.44
2019-06-01T02:31:40.558Z,15.44
2019-06-01T02:32:27.449Z,15.40
2019-06-01T02:33:26.412Z,15.39
2019-06-01T02:34:26.403Z,15.39
2019-06-01T02:35:26.395Z,15.38
2019-06-01T02:36:26.382Z,15.36
2019-06-01T02:37:26.370Z,15.36
2019-06-01T02:38:26.373Z,15.36
2019-06-01T02:39:26.350Z,15.35
2019-06-01T02:40:26.342Z,15.35
2019-06-01T02:41:26.328Z,15.33
2019-06-01T02:42:26.318Z,15.32
2019-06-01T02:43:26.306Z,15.32
2019-06-01T02:44:26.310Z,15.30
2019-06-01T02:45:26.287Z,15.30
2019-06-01T02:46:26.283Z,15.28
2019-06-01T02:47:26.266Z,15.28
2019-06-01T02:48:26.254Z,15.26
2019-06-01T02:49:26.260Z,15.26
2019-06-01T02:50:26.248Z,15.25
2019-06-01T02:51:26.221Z,15.24
2019-06-01T02:52:26.211Z,15.23
2019-06-01T02:53:26.200Z,15.21
2019-06-01T02:54:26.191Z,15.21
2019-06-01T02:55:26.186Z,15.19
2019-06-01T02:56:26.178Z,15.18
2019-06-01T02:57:26.156Z,15.19
2019-06-01T02:58:26.147Z,15.18
2019-06-01T02:59:26.136Z,15.16
2019-06-01T03:00:26.124Z,15.16
2019-06-01T03:01:26.115Z,15.16
2019-06-01T03:02:26.114Z,15.15
2019-06-01T03:03:26.094Z,15.16
2019-06-01T03:04:26.084Z,15.15
2019-06-01T03:05:26.071Z,15.15
2019-06-01T03:06:26.067Z,15.15
2019-06-01T03:07:26.051Z,15.16
2019-06-01T03:08:26.058Z,15.16
2019-06-01T03:09:26.045Z,15.16
2019-06-01T03:10:26.017Z,15.16
2019-06-01T03:11:26.008Z,15.19
2019-06-01T03:12:25.998Z,15.18
2019-06-01T03:13:25.987Z,15.20
2019-06-01T03:14:26.014Z,15.19
2019-06-01T03:15:25.967Z,15.19
2019-06-01T03:16:25.954Z,15.22
2019-06-01T03:17:25.943Z,15.21
2019-06-01T03:18:25.932Z,15.23
2019-06-01T03:19:25.922Z,15.23
2019-06-01T03:20:25.923Z,15.25
2019-06-01T03:21:25.900Z,15.26
2019-06-01T03:22:25.890Z,15.27
2019-06-01T03:23:25.881Z,15.29
2019-06-01T03:24:25.868Z,15.31
2019-06-01T03:25:25.860Z,15.33
2019-06-01T03:26:25.861Z,15.36
2019-06-01T03:27:25.836Z,15.38
2019-06-01T03:28:25.826Z,15.42
2019-06-01T03:29:25.815Z,15.45
2019-06-01T03:30:25.804Z,15.47
2019-06-01T03:31:25.794Z,15.51
2019-06-01T03:32:36.125Z,15.54
2019-06-01T03:33:26.771Z,15.58
2019-06-01T03:34:25.765Z,15.62
2019-06-01T03:35:25.751Z,15.66
2019-06-01T03:36:25.749Z,15.70
2019-06-01T03:37:25.730Z,15.74
2019-06-01T03:38:25.734Z,15.78
2019-06-01T03:39:25.718Z,15.83
2019-06-01T03:40:25.698Z,15.87
2019-06-01T03:41:25.686Z,15.91
2019-06-01T03:42:25.675Z,15.96
2019-06-01T03:43:25.665Z,16.00
2019-06-01T03:44:25.672Z,16.05
2019-06-01T03:45:25.643Z,16.12
2019-06-01T03:46:25.647Z,16.20
2019-06-01T03:47:25.625Z,16.25
2019-06-01T03:48:25.612Z,16.32
2019-06-01T03:49:25.598Z,16.40
2019-06-01T03:50:25.607Z,16.49
2019-06-01T03:51:25.577Z,16.59
2019-06-01T03:52:25.566Z,16.68
2019-06-01T03:53:25.555Z,16.78
2019-06-01T03:54:25.543Z,16.86
2019-06-01T03:55:25.535Z,16.96
2019-06-01T03:56:25.552Z,17.06
2019-06-01T03:57:25.510Z,17.16
2019-06-01T03:58:25.501Z,17.26
2019-06-01T03:59:25.492Z,17.34
2019-06-01T04:00:25.486Z,17.42
2019-06-01T04:01:25.470Z,17.48
2019-06-01T04:02:33.089Z,17.54
2019-06-01T04:03:26.441Z,17.58
2019-06-01T04:04:25.438Z,17.64
2019-06-01T04:05:25.424Z,17.72
2019-06-01T04:06:25.411Z,17.79
2019-06-01T04:07:25.400Z,17.84
2019-06-01T04:08:25.406Z,17.90
2019-06-01T04:09:25.404Z,17.94
2019-06-01T04:10:25.369Z,17.97
2019-06-01T04:11:25.360Z,17.99
2019-06-01T04:12:25.347Z,18.04
2019-06-01T04:13:25.335Z,18.10
2019-06-01T04:14:25.338Z,18.18
2019-06-01T04:15:25.315Z,18.25
2019-06-01T04:16:25.307Z,18.34
2019-06-01T04:17:25.294Z,18.46
2019-06-01T04:18:25.287Z,18.59
2019-06-01T04:19:25.273Z,18.64
2019-06-01T04:20:25.278Z,18.72
2019-06-01T04:21:25.251Z,18.84
2019-06-01T04:22:25.248Z,19.14
2019-06-01T04:23:25.228Z,19.57
2019-06-01T04:24:25.217Z,19.88
2019-06-01T04:25:25.206Z,20.01
2019-06-01T04:26:25.205Z,20.18
2019-06-01T04:27:25.183Z,20.34
2019-06-01T04:28:25.175Z,20.54
2019-06-01T04:29:25.162Z,20.68
2019-06-01T04:30:25.155Z,20.69
2019-06-01T04:31:25.141Z,20.71
2019-06-01T04:32:25.147Z,20.88
2019-06-01T04:33:25.120Z,20.98
2019-06-01T04:34:25.110Z,20.93
2019-06-01T04:35:25.099Z,20.84
2019-06-01T04:36:25.088Z,20.75
2019-06-01T04:37:25.078Z,20.68
2019-06-01T04:38:25.077Z,20.65
2019-06-01T04:39:25.062Z,20.75
2019-06-01T04:40:25.046Z,20.77
2019-06-01T04:41:25.036Z,20.77
2019-06-01T04:42:25.023Z,20.77
2019-06-01T04:43:25.013Z,20.80
2019-06-01T04:44:25.017Z,20.77
2019-06-01T04:45:24.990Z,20.71
2019-06-01T04:46:24.986Z,20.58
2019-06-01T04:47:24.970Z,20.48
2019-06-01T04:48:24.958Z,20.50
2019-06-01T04:49:24.948Z,20.67
2019-06-01T04:50:24.948Z,20.89
2019-06-01T04:51:24.933Z,20.97
2019-06-01T04:52:24.915Z,21.15
2019-06-01T04:53:24.904Z,21.64
2019-06-01T04:54:24.893Z,22.13
2019-06-01T04:55:24.883Z,22.48
2019-06-01T04:56:24.883Z,22.93
2019-06-01T04:57:24.860Z,23.27
2019-06-01T04:58:24.848Z,23.58
2019-06-01T04:59:24.841Z,23.96
2019-06-01T05:00:27.855Z,24.30
2019-06-01T05:01:24.817Z,24.73
2019-06-01T05:02:24.820Z,25.28
2019-06-01T05:03:24.795Z,25.65
2019-06-01T05:04:24.785Z,25.68
2019-06-01T05:05:24.778Z,25.82
2019-06-01T05:06:24.763Z,25.67
2019-06-01T05:07:24.752Z,25.62
2019-06-01T05:08:24.768Z,25.54
2019-06-01T05:09:24.730Z,25.94
2019-06-01T05:10:24.718Z,26.46
2019-06-01T05:11:24.710Z,27.03
2019-06-01T05:12:24.697Z,27.52
2019-06-01T05:13:24.685Z,27.88
2019-06-01T05:14:24.685Z,28.35
2019-06-01T05:15:24.667Z,28.71
2019-06-01T05:16:24.665Z,29.18
2019-06-01T05:17:24.645Z,29.64
2019-06-01T05:18:24.633Z,29.27
2019-06-01T05:19:24.624Z,29.28
2019-06-01T05:20:24.620Z,30.03
2019-06-01T05:21:24.600Z,30.61
2019-06-01T05:22:24.589Z,30.97
2019-06-01T05:23:24.579Z,30.67
2019-06-01T05:24:24.569Z,30.62
2019-06-01T05:25:24.556Z,31.30
2019-06-01T05:26:24.565Z,31.65
2019-06-01T05:27:24.535Z,31.65
2019-06-01T05:28:24.523Z,31.68
2019-06-01T05:29:24.513Z,32.00
2019-06-01T05:30:24.502Z,32.15
2019-06-01T05:31:25.395Z,32.08
2019-06-01T05:32:24.498Z,32.24
2019-06-01T05:33:36.470Z,32.65
2019-06-01T05:34:25.458Z,33.00
2019-06-01T05:35:24.450Z,33.28
2019-06-01T05:36:24.438Z,33.51
2019-06-01T05:37:24.437Z,33.88
2019-06-01T05:38:24.429Z,34.33
2019-06-01T05:39:24.407Z,34.51
2019-06-01T05:40:24.398Z,34.88
2019-06-01T05:41:24.383Z,34.36
2019-06-01T05:42:24.373Z,34.61
2019-06-01T05:43:24.366Z,34.50
2019-06-01T05:44:24.381Z,34.25
2019-06-01T05:45:24.364Z,34.27
2019-06-01T05:46:24.331Z,34.72
2019-06-01T05:47:24.331Z,35.17
2019-06-01T05:48:28.491Z,35.77
2019-06-01T05:49:25.307Z,36.39
2019-06-01T05:50:24.287Z,36.43
2019-06-01T05:51:24.277Z,35.83
2019-06-01T05:52:24.267Z,35.29
2019-06-01T05:53:24.256Z,34.75
2019-06-01T05:54:24.248Z,34.18
2019-06-01T05:55:24.245Z,33.67
2019-06-01T05:56:24.224Z,33.11
2019-06-01T05:57:24.214Z,33.98
2019-06-01T05:58:24.201Z,34.64
2019-06-01T05:59:24.192Z,35.27
2019-06-01T06:00:24.183Z,35.48
2019-06-01T06:01:24.185Z,35.15
2019-06-01T06:02:24.158Z,34.82
2019-06-01T06:03:39.536Z,35.44
2019-06-01T06:04:25.137Z,36.08
2019-06-01T06:05:24.129Z,36.54
2019-06-01T06:06:24.118Z,36.93
2019-06-01T06:07:24.129Z,37.32
2019-06-01T06:08:24.094Z,37.64
2019-06-01T06:09:24.083Z,38.00
2019-06-01T06:10:24.075Z,38.35
2019-06-01T06:11:24.064Z,38.66
2019-06-01T06:12:24.055Z,38.96
2019-06-01T06:13:24.061Z,39.31
2019-06-01T06:14:24.031Z,39.67
2019-06-01T06:15:24.022Z,40.04
2019-06-01T06:16:24.011Z,40.42
2019-06-01T06:17:24.395Z,40.73
2019-06-01T06:18:23.991Z,40.93
2019-06-01T06:19:23.989Z,40.95
2019-06-01T06:20:23.967Z,41.17
2019-06-01T06:21:23.957Z,41.40
2019-06-01T06:22:23.947Z,41.47
2019-06-01T06:23:23.937Z,41.66
2019-06-01T06:24:23.926Z,41.85
2019-06-01T06:25:28.209Z,42.15
2019-06-01T06:26:24.904Z,42.42
2019-06-01T06:27:23.897Z,42.70
2019-06-01T06:28:26.618Z,42.82
2019-06-01T06:29:23.875Z,42.73
2019-06-01T06:30:23.862Z,42.74
2019-06-01T06:31:23.866Z,42.81
2019-06-01T06:32:23.842Z,42.86
2019-06-01T06:33:23.830Z,42.95
2019-06-01T06:34:23.820Z,42.91
2019-06-01T06:35:23.809Z,42.92
2019-06-01T06:36:23.895Z,43.05
2019-06-01T06:37:23.942Z,43.14
2019-06-01T06:38:24.062Z,43.20
2019-06-01T06:39:24.239Z,42.98
2019-06-01T06:40:24.290Z,42.59
2019-06-01T06:41:24.462Z,42.55
2019-06-01T06:42:24.475Z,42.66
2019-06-01T06:43:32.438Z,42.53
2019-06-01T06:44:24.880Z,42.60
2019-06-01T06:45:24.853Z,42.66
2019-06-01T06:46:24.828Z,42.75
2019-06-01T06:47:23.961Z,42.95
2019-06-01T06:48:23.675Z,43.11
2019-06-01T06:49:23.687Z,43.11
2019-06-01T06:50:23.672Z,43.11
2019-06-01T06:51:23.649Z,43.18
2019-06-01T06:52:23.727Z,43.33
2019-06-01T06:53:32.650Z,43.39
2019-06-01T06:54:25.931Z,43.29
2019-06-01T06:55:24.052Z,43.23
2019-06-01T06:56:24.030Z,43.34
2019-06-01T06:57:24.234Z,43.44
2019-06-01T06:58:24.457Z,43.85
2019-06-01T06:59:24.606Z,44.22
2019-06-01T07:00:24.809Z,44.39
2019-06-01T07:01:24.775Z,44.39
2019-06-01T07:02:23.534Z,44.36
2019-06-01T07:03:23.521Z,44.36
2019-06-01T07:04:23.524Z,44.37
2019-06-01T07:05:23.553Z,44.53
2019-06-01T07:06:23.689Z,44.62
2019-06-01T07:07:23.792Z,44.53
2019-06-01T07:08:23.897Z,44.47
2019-06-01T07:09:24.070Z,44.35
2019-06-01T07:10:24.253Z,44.33
2019-06-01T07:11:23.530Z,44.27
2019-06-01T07:12:23.440Z,44.25
2019-06-01T07:13:23.473Z,44.22
2019-06-01T07:14:23.568Z,44.17
2019-06-01T07:15:23.521Z,44.30
2019-06-01T07:16:23.530Z,44.27
2019-06-01T07:17:23.601Z,44.34
2019-06-01T07:18:23.739Z,44.36
2019-06-01T07:19:23.775Z,44.60
2019-06-01T07:20:23.694Z,44.86
2019-06-01T07:21:23.765Z,45.02
2019-06-01T07:22:23.821Z,45.22
2019-06-01T07:23:23.851Z,45.40
2019-06-01T07:24:23.928Z,45.45
2019-06-01T07:25:23.296Z,45.58
2019-06-01T07:26:24.084Z,45.68
2019-06-01T07:27:24.121Z,45.74
2019-06-01T07:28:24.138Z,45.80
2019-06-01T07:29:24.199Z,45.99
2019-06-01T07:30:24.242Z,46.09
2019-06-01T07:31:24.229Z,46.17
2019-06-01T07:32:24.626Z,46.23
2019-06-01T07:33:24.293Z,46.20
2019-06-01T07:34:35.562Z,46.18
2019-06-01T07:35:24.480Z,46.32
2019-06-01T07:36:24.399Z,46.39
2019-06-01T07:37:24.358Z,46.52
2019-06-01T07:38:24.521Z,46.65
2019-06-01T07:39:24.454Z,46.66
2019-06-01T07:40:23.138Z,46.71
2019-06-01T07:41:23.141Z,46.85
2019-06-01T07:42:24.770Z,46.87
2019-06-01T07:43:23.105Z,46.71
2019-06-01T07:44:23.096Z,46.50
2019-06-01T07:45:23.084Z,46.53
2019-06-01T07:46:23.076Z,46.66
2019-06-01T07:47:23.074Z,46.85
2019-06-01T07:48:23.181Z,47.04
2019-06-01T07:49:23.301Z,46.94
2019-06-01T07:50:23.934Z,46.83
2019-06-01T07:51:23.254Z,46.78
2019-06-01T07:52:24.110Z,46.65
2019-06-01T07:53:24.061Z,46.54
2019-06-01T07:54:24.748Z,46.39
2019-06-01T07:55:23.505Z,46.34
2019-06-01T07:56:24.011Z,46.36
2019-06-01T07:57:23.560Z,46.43
2019-06-01T07:58:22.949Z,46.43
2019-06-01T07:59:24.421Z,46.42
2019-06-01T08:00:24.051Z,46.39
2019-06-01T08:01:24.976Z,46.11
2019-06-01T08:02:25.864Z,45.64
2019-06-01T08:03:26.084Z,45.36
2019-06-01T08:04:24.647Z,45.26
2019-06-01T08:05:24.727Z,45.27
2019-06-01T08:06:23.980Z,45.26
2019-06-01T08:07:23.368Z,45.29
2019-06-01T08:08:23.360Z,45.37
2019-06-01T08:09:24.517Z,45.35
2019-06-01T08:10:24.442Z,45.26
2019-06-01T08:11:25.004Z,45.24
2019-06-01T08:12:23.797Z,44.98
2019-06-01T08:13:23.420Z,44.80
2019-06-01T08:14:22.777Z,44.50
2019-06-01T08:15:23.551Z,44.42
2019-06-01T08:16:23.676Z,44.44
2019-06-01T08:17:24.073Z,44.07
2019-06-01T08:18:23.889Z,43.84
2019-06-01T08:19:23.848Z,43.90
2019-06-01T08:20:23.866Z,44.03
2019-06-01T08:21:23.894Z,44.16
2019-06-01T08:22:23.769Z,44.27
2019-06-01T08:23:23.789Z,44.31
2019-06-01T08:24:22.672Z,44.24
2019-06-01T08:25:22.664Z,43.97
2019-06-01T08:26:22.667Z,43.99
2019-06-01T08:27:22.643Z,43.95
2019-06-01T08:28:22.645Z,43.80
2019-06-01T08:29:22.746Z,43.76
2019-06-01T08:30:22.647Z,43.75
2019-06-01T08:31:22.650Z,43.81
2019-06-01T08:32:22.747Z,43.47
2019-06-01T08:33:26.602Z,42.34
2019-06-01T08:34:24.703Z,41.36
2019-06-01T08:35:22.850Z,40.68
2019-06-01T08:36:23.174Z,40.14
2019-06-01T08:37:23.476Z,39.73
2019-06-01T08:38:23.345Z,39.39
2019-06-01T08:39:23.485Z,38.92
2019-06-01T08:40:23.311Z,38.70
2019-06-01T08:41:23.394Z,38.53
2019-06-01T08:42:23.439Z,38.48
2019-06-01T08:43:23.547Z,38.46
2019-06-01T08:44:23.551Z,38.54
2019-06-01T08:45:23.539Z,38.67
2019-06-01T08:46:23.631Z,38.87
2019-06-01T08:47:23.568Z,39.16
2019-06-01T08:48:23.580Z,39.29
2019-06-01T08:49:23.803Z,39.49
2019-06-01T08:50:23.726Z,39.71
2019-06-01T08:51:23.845Z,39.90
2019-06-01T08:52:23.775Z,40.03
2019-06-01T08:53:22.370Z,40.16
2019-06-01T08:54:22.361Z,40.22
2019-06-01T08:55:22.350Z,40.26
2019-06-01T08:56:22.341Z,40.36
2019-06-01T08:57:22.331Z,40.53
2019-06-01T08:58:22.331Z,40.69
2019-06-01T08:59:22.320Z,40.57
2019-06-01T09:00:22.300Z,40.59
2019-06-01T09:01:22.288Z,40.64
2019-06-01T09:02:22.304Z,40.70
2019-06-01T09:03:22.281Z,40.78
2019-06-01T09:04:22.267Z,40.73
2019-06-01T09:05:25.830Z,40.57
2019-06-01T09:06:22.235Z,40.44
2019-06-01T09:07:22.226Z,40.29
2019-06-01T09:08:23.951Z,40.09
2019-06-01T09:09:22.202Z,40.01
2019-06-01T09:10:22.204Z,40.04
2019-06-01T09:11:22.182Z,40.03
2019-06-01T09:12:22.171Z,40.10
2019-06-01T09:13:22.160Z,40.17
2019-06-01T09:14:22.150Z,40.18
2019-06-01T09:15:22.139Z,40.23
2019-06-01T09:16:22.140Z,40.26
2019-06-01T09:17:22.118Z,40.27
2019-06-01T09:18:22.116Z,40.32
2019-06-01T09:19:22.098Z,40.35
2019-06-01T09:20:22.089Z,40.37
2019-06-01T09:21:22.075Z,40.38
2019-06-01T09:22:22.078Z,40.43
2019-06-01T09:23:22.054Z,40.46
2019-06-01T09:24:22.084Z,40.49
2019-06-01T09:25:22.041Z,40.52
2019-06-01T09:26:22.023Z,40.55
2019-06-01T09:27:22.012Z,40.58
2019-06-01T09:28:22.036Z,40.60
2019-06-01T09:29:21.993Z,40.64
2019-06-01T09:30:21.984Z,40.69
2019-06-01T09:31:21.990Z,40.75
2019-06-01T09:32:21.960Z,40.81
2019-06-01T09:33:21.948Z,40.87
2019-06-01T09:34:21.949Z,40.96
2019-06-01T09:35:21.929Z,41.00
2019-06-01T09:36:21.918Z,40.98
2019-06-01T09:37:21.907Z,40.98
2019-06-01T09:38:21.901Z,40.99
2019-06-01T09:39:21.889Z,40.97
2019-06-01T09:40:21.886Z,40.99
2019-06-01T09:41:21.869Z,40.99
2019-06-01T09:42:21.858Z,41.06
2019-06-01T09:43:21.849Z,41.16
2019-06-01T09:44:21.839Z,41.23
2019-06-01T09:45:21.825Z,41.29
2019-06-01T09:46:21.826Z,41.31
2019-06-01T09:47:21.805Z,41.35
2019-06-01T09:48:21.794Z,41.35
2019-06-01T09:49:21.784Z,41.37
2019-06-01T09:50:21.791Z,41.45
2019-06-01T09:51:21.764Z,41.55
2019-06-01T09:52:21.765Z,41.57
2019-06-01T09:53:21.744Z,41.56
2019-06-01T09:54:21.733Z,41.56
2019-06-01T09:55:21.725Z,41.54
2019-06-01T09:56:21.712Z,41.56
2019-06-01T09:57:21.703Z,41.66
2019-06-01T09:58:21.702Z,41.74
2019-06-01T09:59:21.685Z,41.85
2019-06-01T10:00:21.672Z,42.00
2019-06-01T10:01:21.662Z,42.16
2019-06-01T10:02:21.650Z,42.34
2019-06-01T10:03:21.640Z,42.51
2019-06-01T10:04:21.641Z,42.62
2019-06-01T10:05:21.619Z,42.69
2019-06-01T10:06:21.610Z,42.73
2019-06-01T10:07:21.601Z,42.83
2019-06-01T10:08:21.589Z,42.98
2019-06-01T10:09:21.577Z,43.10
2019-06-01T10:10:21.596Z,43.29
2019-06-01T10:11:21.558Z,43.52
2019-06-01T10:12:21.575Z,43.75
2019-06-01T10:13:21.540Z,43.92
2019-06-01T10:14:21.525Z,44.12
2019-06-01T10:15:21.518Z,44.35
2019-06-01T10:16:21.516Z,44.63
2019-06-01T10:17:21.496Z,44.95
2019-06-01T10:18:21.487Z,45.28
2019-06-01T10:19:21.474Z,45.71
2019-06-01T10:20:21.470Z,46.15
2019-06-01T10:21:21.451Z,46.66
2019-06-01T10:22:21.469Z,47.29
2019-06-01T10:23:21.431Z,47.82
2019-06-01T10:24:21.431Z,48.34
2019-06-01T10:25:21.416Z,48.82
2019-06-01T10:26:21.412Z,49.20
2019-06-01T10:27:21.392Z,49.45
2019-06-01T10:28:21.397Z,49.74
2019-06-01T10:29:21.372Z,49.95
2019-06-01T10:30:21.376Z,50.11
2019-06-01T10:31:21.353Z,50.25
2019-06-01T10:32:21.347Z,50.52
2019-06-01T10:33:21.331Z,50.79
2019-06-01T10:34:21.332Z,51.11
2019-06-01T10:35:21.312Z,51.28
2019-06-01T10:36:21.733Z,51.31
2019-06-01T10:37:21.306Z,51.31
2019-06-01T10:38:21.279Z,51.13
2019-06-01T10:39:21.274Z,50.83
2019-06-01T10:40:21.270Z,50.71
2019-06-01T10:41:21.253Z,50.55
2019-06-01T10:42:21.239Z,50.36
2019-06-01T10:43:21.228Z,50.32
2019-06-01T10:44:21.217Z,50.19
2019-06-01T10:45:21.303Z,49.80
2019-06-01T10:46:21.215Z,49.21
2019-06-01T10:47:21.187Z,47.94
2019-06-01T10:48:21.182Z,46.31
2019-06-01T10:49:21.167Z,44.45
2019-06-01T10:50:21.158Z,42.61
2019-06-01T10:51:21.228Z,40.94
2019-06-01T10:52:21.160Z,39.62
2019-06-01T10:53:21.128Z,38.58
2019-06-01T10:54:21.113Z,37.75
2019-06-01T10:55:21.104Z,37.13
2019-06-01T10:56:21.094Z,36.66
2019-06-01T10:57:21.084Z,36.27
2019-06-01T10:58:21.090Z,35.90
2019-06-01T10:59:21.061Z,35.55
2019-06-01T11:00:37.048Z,35.22
2019-06-01T11:01:22.039Z,34.90
2019-06-01T11:02:21.030Z,34.63
2019-06-01T11:03:21.025Z,34.39
2019-06-01T11:04:21.021Z,34.15
2019-06-01T11:05:20.998Z,33.96
2019-06-01T11:06:36.182Z,33.78
2019-06-01T11:07:21.977Z,33.61
2019-06-01T11:08:20.966Z,33.47
2019-06-01T11:09:20.961Z,33.32
2019-06-01T11:10:20.957Z,33.17
2019-06-01T11:11:20.935Z,33.04
2019-06-01T11:12:20.924Z,32.87
2019-06-01T11:13:20.916Z,32.73
2019-06-01T11:14:20.902Z,32.59
2019-06-01T11:15:20.899Z,32.49
2019-06-01T11:16:20.893Z,32.40
2019-06-01T11:17:20.874Z,32.33
2019-06-01T11:18:20.859Z,32.25
2019-06-01T11:19:20.852Z,32.19
2019-06-01T11:20:20.841Z,32.11
2019-06-01T11:21:20.828Z,32.02
2019-06-01T11:22:20.828Z,31.98
2019-06-01T11:23:20.815Z,31.94
2019-06-01T11:24:20.796Z,31.92
2019-06-01T11:25:20.785Z,31.87
2019-06-01T11:26:20.777Z,31.85
2019-06-01T11:27:20.763Z,31.84
2019-06-01T11:28:20.766Z,31.80
2019-06-01T11:29:20.751Z,31.77
2019-06-01T11:30:20.733Z,31.75
2019-06-01T11:31:20.722Z,31.74
2019-06-01T11:32:20.713Z,31.71
2019-06-01T11:33:20.702Z,31.69
2019-06-01T11:34:20.701Z,31.66
2019-06-01T11:35:20.681Z,31.62
2019-06-01T11:36:20.672Z,31.61
2019-06-01T11:37:20.678Z,31.60
2019-06-01T11:38:20.649Z,31.58
2019-06-01T11:39:20.638Z,31.57
2019-06-01T11:40:20.668Z,31.56
2019-06-01T11:41:20.618Z,31.54
2019-06-01T11:42:20.609Z,31.50
2019-06-01T11:43:20.596Z,31.48
2019-06-01T11:44:20.587Z,31.49
2019-06-01T11:45:20.575Z,31.48
2019-06-01T11:46:20.578Z,31.45
2019-06-01T11:47:20.557Z,31.42
2019-06-01T11:48:20.544Z,31.41
2019-06-01T11:49:21.510Z,31.39
2019-06-01T11:50:20.524Z,31.39
2019-06-01T11:51:20.513Z,31.40
2019-06-01T11:52:20.513Z,31.41
2019-06-01T11:53:20.497Z,31.42
2019-06-01T11:54:20.489Z,31.43
2019-06-01T11:55:20.471Z,31.42
2019-06-01T11:56:20.460Z,31.41
2019-06-01T11:57:20.451Z,31.39
2019-06-01T11:58:20.475Z,31.39
2019-06-01T11:59:21.293Z,31.38
2019-06-01T12:00:20.421Z,31.36
2019-06-01T12:01:20.427Z,31.37
2019-06-01T12:02:20.397Z,31.37
2019-06-01T12:03:20.388Z,31.38
2019-06-01T12:04:20.390Z,31.37
2019-06-01T12:05:20.366Z,31.38
2019-06-01T12:06:20.355Z,31.39
2019-06-01T12:07:20.348Z,31.37
2019-06-01T12:08:20.334Z,31.34
2019-06-01T12:09:20.323Z,31.33
2019-06-01T12:10:20.326Z,31.29
2019-06-01T12:11:20.303Z,31.27
2019-06-01T12:12:20.291Z,31.25
2019-06-01T12:13:20.284Z,31.22
2019-06-01T12:14:20.273Z,31.20
2019-06-01T12:15:20.263Z,31.17
2019-06-01T12:16:20.261Z,31.17
2019-06-01T12:17:20.239Z,31.16
2019-06-01T12:18:20.230Z,31.15
2019-06-01T12:19:20.220Z,31.13
2019-06-01T12:20:20.208Z,31.11
2019-06-01T12:21:20.200Z,31.09
2019-06-01T12:22:20.198Z,31.07
2019-06-01T12:23:20.176Z,31.05
2019-06-01T12:24:25.545Z,31.04
2019-06-01T12:25:21.156Z,31.03
2019-06-01T12:26:20.146Z,31.04
2019-06-01T12:27:20.142Z,31.02
2019-06-01T12:28:20.137Z,31.03
2019-06-01T12:29:20.116Z,31.02
2019-06-01T12:30:20.457Z,31.02
2019-06-01T12:31:20.093Z,31.01
2019-06-01T12:32:20.092Z,31.00
2019-06-01T12:33:20.074Z,30.98
2019-06-01T12:34:20.072Z,30.96
2019-06-01T12:35:20.055Z,30.97
2019-06-01T12:36:20.040Z,30.98
2019-06-01T12:37:34.510Z,30.96
2019-06-01T12:38:21.017Z,30.94
2019-06-01T12:39:20.009Z,30.94
2019-06-01T12:40:20.094Z,30.95
2019-06-01T12:41:19.988Z,30.96
2019-06-01T12:42:19.977Z,30.95
2019-06-01T12:43:19.965Z,30.95
2019-06-01T12:44:19.957Z,30.95
2019-06-01T12:45:22.729Z,30.93
2019-06-01T12:46:19.946Z,30.95
2019-06-01T12:47:19.924Z,30.95
2019-06-01T12:48:19.918Z,30.98
2019-06-01T12:49:19.903Z,31.01
2019-06-01T12:50:19.922Z,31.04
2019-06-01T12:51:19.883Z,31.08
2019-06-01T12:52:19.886Z,31.09